sensor_id;sensor_type;location;lat;lon;timestamp;temperature;humidity
23534;DHT22;11944;50.796;4.322;2022-09-03T00:01:49;19.80;99.90
23534;DHT22;11944;50.796;4.322;2022-09-03T00:04:29;19.90;99.90
23534;DHT22;11944;50.796;4.322;2022-09-03T00:07:02;19.80;99.90
23534;DHT22;11944;50.796;4.322;2022-09-03T00:09:51;19.90;99.90
23534;DHT22;11944;50.796;4.322;2022-09-03T00:12:15;19.80;99.90
23534;DHT22;11944;50.796;4.322;2022-09-03T00:15:26;19.80;99.90
23534;DHT22;11944;50.796;4.322;2022-09-03T00:20:03;19.80;99.90
23534;DHT22;11944;50.796;4.322;2022-09-03T00:25:16;19.80;99.90
23534;DHT22;11944;50.796;4.322;2022-09-03T00:27:43;19.70;99.90
23534;DHT22;11944;50.796;4.322;2022-09-03T00:30:12;19.70;99.90
23534;DHT22;11944;50.796;4.322;2022-09-03T00:32:41;19.70;99.90
23534;DHT22;11944;50.796;4.322;2022-09-03T00:35:13;19.70;99.90
23534;DHT22;11944;50.796;4.322;2022-09-03T00:37:39;19.60;99.90
23534;DHT22;11944;50.796;4.322;2022-09-03T00:40:09;19.70;99.90
23534;DHT22;11944;50.796;4.322;2022-09-03T00:45:12;19.80;99.90
23534;DHT22;11944;50.796;4.322;2022-09-03T00:52:49;19.70;99.90
23534;DHT22;11944;50.796;4.322;2022-09-03T00:58:01;19.70;99.90
23534;DHT22;11944;50.796;4.322;2022-09-03T01:00:25;19.60;99.90
23534;DHT22;11944;50.796;4.322;2022-09-03T01:02:56;19.70;99.90
23534;DHT22;11944;50.796;4.322;2022-09-03T01:13:21;19.80;99.90
23534;DHT22;11944;50.796;4.322;2022-09-03T01:21:30;19.80;99.90
23534;DHT22;11944;50.796;4.322;2022-09-03T01:24:03;19.70;99.90
23534;DHT22;11944;50.796;4.322;2022-09-03T01:39:44;19.70;99.90
23534;DHT22;11944;50.796;4.322;2022-09-03T01:42:18;19.70;99.90
23534;DHT22;11944;50.796;4.322;2022-09-03T01:47:27;19.70;99.90
23534;DHT22;11944;50.796;4.322;2022-09-03T01:50:03;19.60;99.90
23534;DHT22;11944;50.796;4.322;2022-09-03T01:52:44;19.60;99.90
23534;DHT22;11944;50.796;4.322;2022-09-03T01:58:01;19.60;99.90
23534;DHT22;11944;50.796;4.322;2022-09-03T02:00:31;19.70;99.90
23534;DHT22;11944;50.796;4.322;2022-09-03T02:03:00;19.60;99.90
23534;DHT22;11944;50.796;4.322;2022-09-03T02:05:28;19.60;99.90
23534;DHT22;11944;50.796;4.322;2022-09-03T02:07:56;19.60;99.90
23534;DHT22;11944;50.796;4.322;2022-09-03T02:10:37;19.60;99.90
23534;DHT22;11944;50.796;4.322;2022-09-03T02:12:55;19.60;99.90
23534;DHT22;11944;50.796;4.322;2022-09-03T02:15:22;19.60;99.90
23534;DHT22;11944;50.796;4.322;2022-09-03T02:17:51;19.60;99.90
23534;DHT22;11944;50.796;4.322;2022-09-03T02:20:21;19.60;99.90
23534;DHT22;11944;50.796;4.322;2022-09-03T02:22:48;19.50;99.90
23534;DHT22;11944;50.796;4.322;2022-09-03T02:25:15;19.60;99.90
23534;DHT22;11944;50.796;4.322;2022-09-03T02:27:42;19.60;99.90
23534;DHT22;11944;50.796;4.322;2022-09-03T02:30:10;19.60;99.90
23534;DHT22;11944;50.796;4.322;2022-09-03T02:32:37;19.60;99.90
23534;DHT22;11944;50.796;4.322;2022-09-03T02:35:04;19.60;99.90
23534;DHT22;11944;50.796;4.322;2022-09-03T02:37:31;19.70;99.90
23534;DHT22;11944;50.796;4.322;2022-09-03T02:39:58;19.70;99.90
23534;DHT22;11944;50.796;4.322;2022-09-03T02:42:25;19.70;99.90
23534;DHT22;11944;50.796;4.322;2022-09-03T02:44:54;19.80;99.90
23534;DHT22;11944;50.796;4.322;2022-09-03T02:47:21;19.70;99.90
23534;DHT22;11944;50.796;4.322;2022-09-03T02:49:49;19.70;99.90
23534;DHT22;11944;50.796;4.322;2022-09-03T02:52:15;19.70;99.90
23534;DHT22;11944;50.796;4.322;2022-09-03T02:54:42;19.80;99.90
23534;DHT22;11944;50.796;4.322;2022-09-03T02:57:11;19.80;99.90
23534;DHT22;11944;50.796;4.322;2022-09-03T02:59:39;19.70;99.90
23534;DHT22;11944;50.796;4.322;2022-09-03T03:02:07;19.70;99.90
23534;DHT22;11944;50.796;4.322;2022-09-03T03:04:34;19.80;99.90
23534;DHT22;11944;50.796;4.322;2022-09-03T03:07:01;19.70;99.90
23534;DHT22;11944;50.796;4.322;2022-09-03T03:09:28;19.80;99.90
23534;DHT22;11944;50.796;4.322;2022-09-03T03:11:55;19.80;99.90
23534;DHT22;11944;50.796;4.322;2022-09-03T03:14:22;19.70;99.90
23534;DHT22;11944;50.796;4.322;2022-09-03T03:16:49;19.70;99.90
23534;DHT22;11944;50.796;4.322;2022-09-03T03:19:16;19.70;99.90
23534;DHT22;11944;50.796;4.322;2022-09-03T03:21:43;19.60;99.90
23534;DHT22;11944;50.796;4.322;2022-09-03T03:24:09;19.60;99.90
23534;DHT22;11944;50.796;4.322;2022-09-03T03:26:36;19.50;99.90
23534;DHT22;11944;50.796;4.322;2022-09-03T03:29:03;19.40;99.90
23534;DHT22;11944;50.796;4.322;2022-09-03T03:31:30;19.40;99.90
23534;DHT22;11944;50.796;4.322;2022-09-03T03:33:58;19.30;99.90
23534;DHT22;11944;50.796;4.322;2022-09-03T03:36:26;19.30;99.90
23534;DHT22;11944;50.796;4.322;2022-09-03T03:38:54;19.30;99.90
23534;DHT22;11944;50.796;4.322;2022-09-03T03:41:26;19.20;99.90
23534;DHT22;11944;50.796;4.322;2022-09-03T03:43:56;19.20;99.90
23534;DHT22;11944;50.796;4.322;2022-09-03T03:46:23;19.10;99.90
23534;DHT22;11944;50.796;4.322;2022-09-03T03:48:50;19.00;99.90
23534;DHT22;11944;50.796;4.322;2022-09-03T03:51:17;19.00;99.90
23534;DHT22;11944;50.796;4.322;2022-09-03T03:53:44;19.00;99.90
23534;DHT22;11944;50.796;4.322;2022-09-03T03:56:13;18.90;99.90
23534;DHT22;11944;50.796;4.322;2022-09-03T03:58:40;18.80;99.90
23534;DHT22;11944;50.796;4.322;2022-09-03T04:01:19;18.80;99.90
23534;DHT22;11944;50.796;4.322;2022-09-03T04:03:37;18.80;99.90
23534;DHT22;11944;50.796;4.322;2022-09-03T04:08:50;18.80;99.90
23534;DHT22;11944;50.796;4.322;2022-09-03T04:11:18;18.70;99.90
23534;DHT22;11944;50.796;4.322;2022-09-03T04:13:45;18.40;99.90
23534;DHT22;11944;50.796;4.322;2022-09-03T04:16:13;18.20;99.90
23534;DHT22;11944;50.796;4.322;2022-09-03T04:18:40;18.30;99.90
23534;DHT22;11944;50.796;4.322;2022-09-03T04:21:08;18.20;99.90
23534;DHT22;11944;50.796;4.322;2022-09-03T04:23:37;18.20;99.90
23534;DHT22;11944;50.796;4.322;2022-09-03T04:26:04;18.30;99.90
23534;DHT22;11944;50.796;4.322;2022-09-03T04:28:31;18.20;99.90
23534;DHT22;11944;50.796;4.322;2022-09-03T04:31:02;18.10;99.90
23534;DHT22;11944;50.796;4.322;2022-09-03T04:33:30;18.00;99.90
23534;DHT22;11944;50.796;4.322;2022-09-03T04:38:31;18.10;99.90
23534;DHT22;11944;50.796;4.322;2022-09-03T04:40:58;18.20;99.90
23534;DHT22;11944;50.796;4.322;2022-09-03T04:43:26;18.30;99.90
23534;DHT22;11944;50.796;4.322;2022-09-03T04:45:56;18.40;99.90
23534;DHT22;11944;50.796;4.322;2022-09-03T04:48:23;18.30;99.90
23534;DHT22;11944;50.796;4.322;2022-09-03T04:50:50;18.20;99.90
23534;DHT22;11944;50.796;4.322;2022-09-03T04:53:17;18.20;99.90
23534;DHT22;11944;50.796;4.322;2022-09-03T04:55:44;18.10;99.90
23534;DHT22;11944;50.796;4.322;2022-09-03T04:58:11;18.10;99.90
23534;DHT22;11944;50.796;4.322;2022-09-03T05:00:37;18.10;99.90
23534;DHT22;11944;50.796;4.322;2022-09-03T05:03:04;18.10;99.90
23534;DHT22;11944;50.796;4.322;2022-09-03T05:05:31;18.10;99.90
23534;DHT22;11944;50.796;4.322;2022-09-03T05:08:01;18.10;99.90
23534;DHT22;11944;50.796;4.322;2022-09-03T05:10:29;18.20;99.90
23534;DHT22;11944;50.796;4.322;2022-09-03T05:13:03;18.30;99.90
23534;DHT22;11944;50.796;4.322;2022-09-03T05:15:30;18.30;99.90
23534;DHT22;11944;50.796;4.322;2022-09-03T05:17:58;18.30;99.90
23534;DHT22;11944;50.796;4.322;2022-09-03T05:20:27;18.30;99.90
23534;DHT22;11944;50.796;4.322;2022-09-03T05:22:55;18.30;99.90
23534;DHT22;11944;50.796;4.322;2022-09-03T05:25:22;18.20;99.90
23534;DHT22;11944;50.796;4.322;2022-09-03T05:27:49;18.20;99.90
23534;DHT22;11944;50.796;4.322;2022-09-03T05:30:16;18.20;99.90
23534;DHT22;11944;50.796;4.322;2022-09-03T05:32:43;18.20;99.90
23534;DHT22;11944;50.796;4.322;2022-09-03T05:35:10;18.10;99.90
23534;DHT22;11944;50.796;4.322;2022-09-03T05:37:37;17.90;99.90
23534;DHT22;11944;50.796;4.322;2022-09-03T05:40:04;17.90;99.90
23534;DHT22;11944;50.796;4.322;2022-09-03T05:42:31;17.90;99.90
23534;DHT22;11944;50.796;4.322;2022-09-03T05:45:00;18.10;99.90
23534;DHT22;11944;50.796;4.322;2022-09-03T05:47:26;18.20;99.90
23534;DHT22;11944;50.796;4.322;2022-09-03T05:49:53;18.30;99.90
23534;DHT22;11944;50.796;4.322;2022-09-03T05:52:20;18.40;99.90
23534;DHT22;11944;50.796;4.322;2022-09-03T05:54:48;18.50;99.90
23534;DHT22;11944;50.796;4.322;2022-09-03T05:57:15;18.60;99.90
23534;DHT22;11944;50.796;4.322;2022-09-03T05:59:41;18.60;99.90
23534;DHT22;11944;50.796;4.322;2022-09-03T06:02:08;18.60;99.90
23534;DHT22;11944;50.796;4.322;2022-09-03T06:04:35;18.70;99.90
23534;DHT22;11944;50.796;4.322;2022-09-03T06:07:02;18.70;99.90
23534;DHT22;11944;50.796;4.322;2022-09-03T06:09:29;18.80;99.90
23534;DHT22;11944;50.796;4.322;2022-09-03T06:11:56;18.80;99.90
23534;DHT22;11944;50.796;4.322;2022-09-03T06:14:23;18.80;99.90
23534;DHT22;11944;50.796;4.322;2022-09-03T06:16:50;18.60;99.90
23534;DHT22;11944;50.796;4.322;2022-09-03T06:19:17;18.40;99.90
23534;DHT22;11944;50.796;4.322;2022-09-03T06:21:44;18.40;99.90
23534;DHT22;11944;50.796;4.322;2022-09-03T06:24:17;18.50;99.90
23534;DHT22;11944;50.796;4.322;2022-09-03T06:26:40;18.60;99.90
23534;DHT22;11944;50.796;4.322;2022-09-03T06:29:06;18.80;99.90
23534;DHT22;11944;50.796;4.322;2022-09-03T06:31:33;18.80;99.90
23534;DHT22;11944;50.796;4.322;2022-09-03T06:34:00;18.90;99.90
23534;DHT22;11944;50.796;4.322;2022-09-03T06:36:27;19.00;99.90
23534;DHT22;11944;50.796;4.322;2022-09-03T06:38:55;19.10;99.90
23534;DHT22;11944;50.796;4.322;2022-09-03T06:41:24;19.20;99.90
23534;DHT22;11944;50.796;4.322;2022-09-03T06:43:52;19.40;99.90
23534;DHT22;11944;50.796;4.322;2022-09-03T06:46:20;19.30;99.90
23534;DHT22;11944;50.796;4.322;2022-09-03T06:48:47;19.30;99.90
23534;DHT22;11944;50.796;4.322;2022-09-03T06:51:17;19.10;99.90
23534;DHT22;11944;50.796;4.322;2022-09-03T06:53:50;19.20;99.90
23534;DHT22;11944;50.796;4.322;2022-09-03T06:56:13;19.30;99.90
23534;DHT22;11944;50.796;4.322;2022-09-03T06:58:42;19.40;99.90
23534;DHT22;11944;50.796;4.322;2022-09-03T07:01:10;19.40;99.90
23534;DHT22;11944;50.796;4.322;2022-09-03T07:03:38;19.50;99.90
23534;DHT22;11944;50.796;4.322;2022-09-03T07:06:09;19.50;99.90
23534;DHT22;11944;50.796;4.322;2022-09-03T07:08:33;19.50;99.90
23534;DHT22;11944;50.796;4.322;2022-09-03T07:11:01;19.50;99.90
23534;DHT22;11944;50.796;4.322;2022-09-03T07:13:30;19.60;99.90
23534;DHT22;11944;50.796;4.322;2022-09-03T07:15:59;19.70;99.90
23534;DHT22;11944;50.796;4.322;2022-09-03T07:18:26;19.70;99.90
23534;DHT22;11944;50.796;4.322;2022-09-03T07:21:03;19.80;99.90
23534;DHT22;11944;50.796;4.322;2022-09-03T07:23:21;19.80;99.90
23534;DHT22;11944;50.796;4.322;2022-09-03T07:25:52;19.80;99.90
23534;DHT22;11944;50.796;4.322;2022-09-03T07:28:19;19.80;99.90
23534;DHT22;11944;50.796;4.322;2022-09-03T07:30:46;19.80;99.90
23534;DHT22;11944;50.796;4.322;2022-09-03T07:33:13;19.80;99.90
23534;DHT22;11944;50.796;4.322;2022-09-03T07:35:40;19.90;99.90
23534;DHT22;11944;50.796;4.322;2022-09-03T07:38:07;20.10;99.90
23534;DHT22;11944;50.796;4.322;2022-09-03T07:40:34;20.20;99.90
23534;DHT22;11944;50.796;4.322;2022-09-03T07:43:01;20.30;99.90
23534;DHT22;11944;50.796;4.322;2022-09-03T07:45:29;20.40;99.90
23534;DHT22;11944;50.796;4.322;2022-09-03T07:47:58;20.50;99.90
23534;DHT22;11944;50.796;4.322;2022-09-03T07:50:25;20.60;99.90
23534;DHT22;11944;50.796;4.322;2022-09-03T07:52:55;20.70;99.90
23534;DHT22;11944;50.796;4.322;2022-09-03T07:55:23;20.90;99.90
23534;DHT22;11944;50.796;4.322;2022-09-03T07:57:55;20.90;99.90
23534;DHT22;11944;50.796;4.322;2022-09-03T08:00:22;20.60;99.90
23534;DHT22;11944;50.796;4.322;2022-09-03T08:02:50;20.60;99.90
23534;DHT22;11944;50.796;4.322;2022-09-03T08:05:17;20.70;99.90
23534;DHT22;11944;50.796;4.322;2022-09-03T08:07:46;21.00;99.90
23534;DHT22;11944;50.796;4.322;2022-09-03T08:10:14;21.00;99.90
23534;DHT22;11944;50.796;4.322;2022-09-03T08:12:41;21.10;99.90
23534;DHT22;11944;50.796;4.322;2022-09-03T08:15:08;21.50;99.90
23534;DHT22;11944;50.796;4.322;2022-09-03T08:17:36;21.60;99.90
23534;DHT22;11944;50.796;4.322;2022-09-03T08:20:03;21.60;99.90
23534;DHT22;11944;50.796;4.322;2022-09-03T08:22:30;21.70;99.90
23534;DHT22;11944;50.796;4.322;2022-09-03T08:24:57;22.20;99.90
23534;DHT22;11944;50.796;4.322;2022-09-03T08:30:11;22.60;99.90
23534;DHT22;11944;50.796;4.322;2022-09-03T08:32:38;23.50;99.90
23534;DHT22;11944;50.796;4.322;2022-09-03T08:35:05;24.20;99.90
23534;DHT22;11944;50.796;4.322;2022-09-03T08:37:34;24.70;99.90
23534;DHT22;11944;50.796;4.322;2022-09-03T08:40:02;24.90;99.90
23534;DHT22;11944;50.796;4.322;2022-09-03T08:44:59;25.50;99.90
23534;DHT22;11944;50.796;4.322;2022-09-03T08:47:29;25.70;99.90
23534;DHT22;11944;50.796;4.322;2022-09-03T08:57:39;29.10;99.90
23534;DHT22;11944;50.796;4.322;2022-09-03T09:00:05;29.20;99.90
23534;DHT22;11944;50.796;4.322;2022-09-03T09:02:40;28.10;99.90
23534;DHT22;11944;50.796;4.322;2022-09-03T09:05:15;26.40;99.90
23534;DHT22;11944;50.796;4.322;2022-09-03T09:08:25;25.40;99.90
23534;DHT22;11944;50.796;4.322;2022-09-03T09:10:09;25.20;99.90
23534;DHT22;11944;50.796;4.322;2022-09-03T09:12:35;25.30;99.90
23534;DHT22;11944;50.796;4.322;2022-09-03T09:15:05;25.70;99.90
23534;DHT22;11944;50.796;4.322;2022-09-03T09:22:58;24.30;99.90
23534;DHT22;11944;50.796;4.322;2022-09-03T09:25:25;24.50;99.90
23534;DHT22;11944;50.796;4.322;2022-09-03T09:27:56;25.30;99.90
23534;DHT22;11944;50.796;4.322;2022-09-03T09:30:22;25.70;99.90
23534;DHT22;11944;50.796;4.322;2022-09-03T09:32:49;26.00;99.90
23534;DHT22;11944;50.796;4.322;2022-09-03T09:35:17;25.40;99.90
23534;DHT22;11944;50.796;4.322;2022-09-03T09:37:47;24.90;99.90
23534;DHT22;11944;50.796;4.322;2022-09-03T09:43:01;24.30;99.90
23534;DHT22;11944;50.796;4.322;2022-09-03T09:45:22;24.00;99.90
23534;DHT22;11944;50.796;4.322;2022-09-03T09:47:48;23.90;99.90
23534;DHT22;11944;50.796;4.322;2022-09-03T09:50:18;23.80;99.90
23534;DHT22;11944;50.796;4.322;2022-09-03T09:52:46;24.20;99.90
23534;DHT22;11944;50.796;4.322;2022-09-03T09:55:16;24.40;99.90
23534;DHT22;11944;50.796;4.322;2022-09-03T09:57:44;24.60;99.90
23534;DHT22;11944;50.796;4.322;2022-09-03T10:00:15;24.50;99.90
23534;DHT22;11944;50.796;4.322;2022-09-03T10:02:49;25.10;99.90
23534;DHT22;11944;50.796;4.322;2022-09-03T10:05:20;26.30;99.90
23534;DHT22;11944;50.796;4.322;2022-09-03T10:07:59;27.70;99.90
23534;DHT22;11944;50.796;4.322;2022-09-03T10:10:23;28.70;99.90
23534;DHT22;11944;50.796;4.322;2022-09-03T10:12:52;29.00;99.90
23534;DHT22;11944;50.796;4.322;2022-09-03T10:21:05;29.10;99.90
23534;DHT22;11944;50.796;4.322;2022-09-03T10:22:56;29.20;99.90
23534;DHT22;11944;50.796;4.322;2022-09-03T10:25:29;29.00;99.90
23534;DHT22;11944;50.796;4.322;2022-09-03T10:27:55;28.60;99.90
23534;DHT22;11944;50.796;4.322;2022-09-03T10:30:24;28.70;99.90
23534;DHT22;11944;50.796;4.322;2022-09-03T10:33:05;28.90;99.90
23534;DHT22;11944;50.796;4.322;2022-09-03T10:35:38;29.30;99.90
23534;DHT22;11944;50.796;4.322;2022-09-03T10:40:41;28.30;99.90
23534;DHT22;11944;50.796;4.322;2022-09-03T10:45:39;28.00;99.90
23534;DHT22;11944;50.796;4.322;2022-09-03T10:58:28;28.10;99.90
23534;DHT22;11944;50.796;4.322;2022-09-03T11:00:55;28.00;99.90
23534;DHT22;11944;50.796;4.322;2022-09-03T11:03:28;28.10;99.90
23534;DHT22;11944;50.796;4.322;2022-09-03T11:08:27;28.90;99.90
23534;DHT22;11944;50.796;4.322;2022-09-03T11:10:54;28.20;99.90
23534;DHT22;11944;50.796;4.322;2022-09-03T11:16:08;27.30;99.90
23534;DHT22;11944;50.796;4.322;2022-09-03T11:18:48;26.60;99.90
23534;DHT22;11944;50.796;4.322;2022-09-03T11:21:11;26.40;99.90
23534;DHT22;11944;50.796;4.322;2022-09-03T11:23:44;26.40;99.90
23534;DHT22;11944;50.796;4.322;2022-09-03T11:26:08;26.20;99.90
23534;DHT22;11944;50.796;4.322;2022-09-03T11:28:42;26.40;99.90
23534;DHT22;11944;50.796;4.322;2022-09-03T11:33:53;27.60;99.90
23534;DHT22;11944;50.796;4.322;2022-09-03T11:36:28;27.60;99.90
23534;DHT22;11944;50.796;4.322;2022-09-03T11:38:54;26.80;99.90
23534;DHT22;11944;50.796;4.322;2022-09-03T11:43:50;26.30;99.90
23534;DHT22;11944;50.796;4.322;2022-09-03T11:48:51;26.20;99.90
23534;DHT22;11944;50.796;4.322;2022-09-03T11:51:29;26.60;99.90
23534;DHT22;11944;50.796;4.322;2022-09-03T11:59:23;27.20;99.90
23534;DHT22;11944;50.796;4.322;2022-09-03T12:01:52;27.30;99.60
23534;DHT22;11944;50.796;4.322;2022-09-03T12:04:29;27.40;99.70
23534;DHT22;11944;50.796;4.322;2022-09-03T12:12:25;29.30;97.50
23534;DHT22;11944;50.796;4.322;2022-09-03T12:14:49;29.30;97.90
23534;DHT22;11944;50.796;4.322;2022-09-03T12:17:23;30.30;97.80
23534;DHT22;11944;50.796;4.322;2022-09-03T12:22:18;28.90;97.00
23534;DHT22;11944;50.796;4.322;2022-09-03T12:24:45;28.90;96.80
23534;DHT22;11944;50.796;4.322;2022-09-03T12:29:49;29.60;96.60
23534;DHT22;11944;50.796;4.322;2022-09-03T12:32:19;30.50;95.50
23534;DHT22;11944;50.796;4.322;2022-09-03T12:34:46;30.60;94.30
23534;DHT22;11944;50.796;4.322;2022-09-03T12:37:18;30.40;94.40
23534;DHT22;11944;50.796;4.322;2022-09-03T12:39:52;30.90;94.40
23534;DHT22;11944;50.796;4.322;2022-09-03T12:42:28;31.10;94.40
23534;DHT22;11944;50.796;4.322;2022-09-03T12:45:04;30.60;93.70
23534;DHT22;11944;50.796;4.322;2022-09-03T12:47:24;29.10;94.80
23534;DHT22;11944;50.796;4.322;2022-09-03T12:49:51;29.10;95.00
23534;DHT22;11944;50.796;4.322;2022-09-03T12:52:35;29.30;94.70
23534;DHT22;11944;50.796;4.322;2022-09-03T12:57:34;29.30;95.20
23534;DHT22;11944;50.796;4.322;2022-09-03T13:00:04;29.70;95.60
23534;DHT22;11944;50.796;4.322;2022-09-03T13:05:17;28.40;95.30
23534;DHT22;11944;50.796;4.322;2022-09-03T13:07:45;28.50;95.70
23534;DHT22;11944;50.796;4.322;2022-09-03T13:10:20;28.60;96.10
23534;DHT22;11944;50.796;4.322;2022-09-03T13:12:43;29.10;95.10
23534;DHT22;11944;50.796;4.322;2022-09-03T13:15:16;29.30;95.00
23534;DHT22;11944;50.796;4.322;2022-09-03T13:17:51;29.30;94.80
23534;DHT22;11944;50.796;4.322;2022-09-03T13:20:19;28.90;94.10
23534;DHT22;11944;50.796;4.322;2022-09-03T13:25:19;29.00;94.10
23534;DHT22;11944;50.796;4.322;2022-09-03T13:30:36;29.00;94.20
23534;DHT22;11944;50.796;4.322;2022-09-03T13:32:59;29.70;93.10
23534;DHT22;11944;50.796;4.322;2022-09-03T13:35:27;30.10;92.70
23534;DHT22;11944;50.796;4.322;2022-09-03T13:38:02;30.10;92.70
23534;DHT22;11944;50.796;4.322;2022-09-03T13:40:31;30.20;93.60
23534;DHT22;11944;50.796;4.322;2022-09-03T13:42:56;30.10;93.80
23534;DHT22;11944;50.796;4.322;2022-09-03T13:45:29;30.10;93.50
23534;DHT22;11944;50.796;4.322;2022-09-03T13:51:50;29.30;94.40
23534;DHT22;11944;50.796;4.322;2022-09-03T13:53:35;28.70;94.70
23534;DHT22;11944;50.796;4.322;2022-09-03T13:56:01;28.20;95.30
23534;DHT22;11944;50.796;4.322;2022-09-03T14:03:49;28.00;96.10
23534;DHT22;11944;50.796;4.322;2022-09-03T14:13:59;27.90;96.30
23534;DHT22;11944;50.796;4.322;2022-09-03T14:16:26;28.10;95.50
23534;DHT22;11944;50.796;4.322;2022-09-03T14:21:49;28.20;96.00
23534;DHT22;11944;50.796;4.322;2022-09-03T14:24:25;28.00;95.80
23534;DHT22;11944;50.796;4.322;2022-09-03T14:26:55;27.80;95.50
23534;DHT22;11944;50.796;4.322;2022-09-03T14:29:29;27.40;96.20
23534;DHT22;11944;50.796;4.322;2022-09-03T14:37:20;28.10;96.40
23534;DHT22;11944;50.796;4.322;2022-09-03T14:42:39;28.80;95.00
23534;DHT22;11944;50.796;4.322;2022-09-03T14:50:49;28.10;95.20
23534;DHT22;11944;50.796;4.322;2022-09-03T15:11:12;27.00;96.50
23534;DHT22;11944;50.796;4.322;2022-09-03T15:19:02;27.10;97.90
23534;DHT22;11944;50.796;4.322;2022-09-03T15:21:31;27.00;99.00
23534;DHT22;11944;50.796;4.322;2022-09-03T15:29:09;26.30;99.90
23534;DHT22;11944;50.796;4.322;2022-09-03T15:36:59;24.30;99.90
23534;DHT22;11944;50.796;4.322;2022-09-03T15:39:32;23.70;99.90
23534;DHT22;11944;50.796;4.322;2022-09-03T15:42:03;23.20;99.90
23534;DHT22;11944;50.796;4.322;2022-09-03T15:44:50;22.20;99.90
23534;DHT22;11944;50.796;4.322;2022-09-03T15:46:58;22.20;99.90
23534;DHT22;11944;50.796;4.322;2022-09-03T15:49:29;22.20;99.90
23534;DHT22;11944;50.796;4.322;2022-09-03T15:51:59;22.20;99.90
23534;DHT22;11944;50.796;4.322;2022-09-03T15:54:31;22.40;99.90
23534;DHT22;11944;50.796;4.322;2022-09-03T15:57:00;22.60;99.90
23534;DHT22;11944;50.796;4.322;2022-09-03T16:04:38;22.70;99.90
23534;DHT22;11944;50.796;4.322;2022-09-03T16:14:59;22.90;99.90
23534;DHT22;11944;50.796;4.322;2022-09-03T16:17:27;22.80;99.90
23534;DHT22;11944;50.796;4.322;2022-09-03T16:20:05;22.90;99.90
23534;DHT22;11944;50.796;4.322;2022-09-03T16:22:33;23.00;99.90
23534;DHT22;11944;50.796;4.322;2022-09-03T16:25:11;23.00;99.90
23534;DHT22;11944;50.796;4.322;2022-09-03T16:27:40;22.80;99.90
23534;DHT22;11944;50.796;4.322;2022-09-03T16:32:46;22.20;99.90
23534;DHT22;11944;50.796;4.322;2022-09-03T16:43:03;22.50;99.90
23534;DHT22;11944;50.796;4.322;2022-09-03T16:45:48;22.60;99.90
23534;DHT22;11944;50.796;4.322;2022-09-03T16:58:48;22.80;99.90
23534;DHT22;11944;50.796;4.322;2022-09-03T17:03:39;22.80;99.90
23534;DHT22;11944;50.796;4.322;2022-09-03T17:08:49;22.90;99.90
23534;DHT22;11944;50.796;4.322;2022-09-03T17:14:44;23.00;99.90
23534;DHT22;11944;50.796;4.322;2022-09-03T17:16:38;23.00;99.90
23534;DHT22;11944;50.796;4.322;2022-09-03T17:21:58;22.80;99.90
23534;DHT22;11944;50.796;4.322;2022-09-03T17:26:53;22.40;99.90
23534;DHT22;11944;50.796;4.322;2022-09-03T17:29:27;22.40;99.90
23534;DHT22;11944;50.796;4.322;2022-09-03T17:37:38;22.60;99.90
23534;DHT22;11944;50.796;4.322;2022-09-03T17:39:33;22.30;99.90
23534;DHT22;11944;50.796;4.322;2022-09-03T17:41:59;22.20;99.90
23534;DHT22;11944;50.796;4.322;2022-09-03T17:49:25;21.30;99.90
23534;DHT22;11944;50.796;4.322;2022-09-03T17:57:21;21.00;99.90
23534;DHT22;11944;50.796;4.322;2022-09-03T18:00:04;21.10;99.90
23534;DHT22;11944;50.796;4.322;2022-09-03T18:07:41;21.20;99.90
23534;DHT22;11944;50.796;4.322;2022-09-03T18:11:09;21.30;99.90
23534;DHT22;11944;50.796;4.322;2022-09-03T18:12:48;21.30;99.90
23534;DHT22;11944;50.796;4.322;2022-09-03T18:18:07;21.40;99.90
23534;DHT22;11944;50.796;4.322;2022-09-03T18:20:19;21.30;99.90
23534;DHT22;11944;50.796;4.322;2022-09-03T18:23:10;21.30;99.90
23534;DHT22;11944;50.796;4.322;2022-09-03T18:25:56;21.20;99.90
23534;DHT22;11944;50.796;4.322;2022-09-03T18:28:39;21.20;99.90
23534;DHT22;11944;50.796;4.322;2022-09-03T18:31:24;21.10;99.90
23534;DHT22;11944;50.796;4.322;2022-09-03T18:34:08;21.00;99.90
23534;DHT22;11944;50.796;4.322;2022-09-03T18:36:56;20.90;99.90
23534;DHT22;11944;50.796;4.322;2022-09-03T18:39:39;21.00;99.90
23534;DHT22;11944;50.796;4.322;2022-09-03T18:45:20;20.90;99.90
23534;DHT22;11944;50.796;4.322;2022-09-03T18:48:10;20.90;99.90
23534;DHT22;11944;50.796;4.322;2022-09-03T18:50:59;20.70;99.90
23534;DHT22;11944;50.796;4.322;2022-09-03T18:56:50;20.60;99.90
23534;DHT22;11944;50.796;4.322;2022-09-03T19:02:51;20.40;99.90
23534;DHT22;11944;50.796;4.322;2022-09-03T19:08:24;20.40;99.90
23534;DHT22;11944;50.796;4.322;2022-09-03T19:14:06;20.40;99.90
23534;DHT22;11944;50.796;4.322;2022-09-03T19:17:04;20.30;99.90
23534;DHT22;11944;50.796;4.322;2022-09-03T19:22:51;20.20;99.90
23534;DHT22;11944;50.796;4.322;2022-09-03T19:25:35;20.10;99.90
23534;DHT22;11944;50.796;4.322;2022-09-03T19:28:21;20.00;99.90
23534;DHT22;11944;50.796;4.322;2022-09-03T19:37:10;19.90;99.90
23534;DHT22;11944;50.796;4.322;2022-09-03T19:48:41;19.70;99.90
23534;DHT22;11944;50.796;4.322;2022-09-03T19:51:33;19.50;99.90
23534;DHT22;11944;50.796;4.322;2022-09-03T19:54:15;19.40;99.90
23534;DHT22;11944;50.796;4.322;2022-09-03T19:57:01;19.40;99.90
23534;DHT22;11944;50.796;4.322;2022-09-03T19:59:46;19.50;99.90
23534;DHT22;11944;50.796;4.322;2022-09-03T20:02:33;19.50;99.90
23534;DHT22;11944;50.796;4.322;2022-09-03T20:05:19;19.50;99.90
23534;DHT22;11944;50.796;4.322;2022-09-03T20:08:05;19.50;99.90
23534;DHT22;11944;50.796;4.322;2022-09-03T20:10:51;19.50;99.90
23534;DHT22;11944;50.796;4.322;2022-09-03T20:13:19;19.40;99.90
23534;DHT22;11944;50.796;4.322;2022-09-03T20:18:36;19.40;99.90
23534;DHT22;11944;50.796;4.322;2022-09-03T20:21:06;19.30;99.90
23534;DHT22;11944;50.796;4.322;2022-09-03T20:23:33;19.30;99.90
23534;DHT22;11944;50.796;4.322;2022-09-03T20:26:16;19.30;99.90
23534;DHT22;11944;50.796;4.322;2022-09-03T20:34:04;19.30;99.90
23534;DHT22;11944;50.796;4.322;2022-09-03T20:44:27;19.10;99.90
23534;DHT22;11944;50.796;4.322;2022-09-03T20:53:04;19.00;99.90
23534;DHT22;11944;50.796;4.322;2022-09-03T20:54:55;19.10;99.90
23534;DHT22;11944;50.796;4.322;2022-09-03T21:00:13;19.00;99.90
23534;DHT22;11944;50.796;4.322;2022-09-03T21:05:19;19.00;99.90
23534;DHT22;11944;50.796;4.322;2022-09-03T21:25:45;18.90;99.90
23534;DHT22;11944;50.796;4.322;2022-09-03T21:28:18;18.90;99.90
23534;DHT22;11944;50.796;4.322;2022-09-03T21:30:40;18.80;99.90
23534;DHT22;11944;50.796;4.322;2022-09-03T21:33:18;18.80;99.90
23534;DHT22;11944;50.796;4.322;2022-09-03T21:35:43;18.80;99.90
23534;DHT22;11944;50.796;4.322;2022-09-03T21:38:12;18.80;99.90